createdAt,value
2018-08-07T00:00:38.194Z,348.73
2018-08-07T00:03:07.886Z,409.60
2018-08-07T00:05:36.673Z,356.93
2018-08-07T00:08:06.521Z,363.35
2018-08-07T00:10:35.313Z,226.85
2018-08-07T00:13:04.029Z,268.80
2018-08-07T00:15:32.828Z,293.90
2018-08-07T00:18:01.462Z,305.35
2018-08-07T00:20:30.240Z,254.82
2018-08-07T00:22:58.544Z,265.15
2018-08-07T00:25:27.304Z,233.85
2018-08-07T00:27:55.993Z,216.88
2018-08-07T00:30:24.717Z,241.70
2018-08-07T00:32:53.509Z,257.45
2018-08-07T00:35:22.224Z,294.13
2018-08-07T00:37:51.026Z,284.43
2018-08-07T00:40:19.920Z,258.40
2018-08-07T00:42:48.946Z,263.70
2018-08-07T00:45:19.669Z,270.63
2018-08-07T00:47:49.359Z,259.92
2018-08-07T00:50:20.617Z,267.80
2018-08-07T00:52:50.277Z,253.62
2018-08-07T00:55:19.578Z,260.17
2018-08-07T00:57:48.939Z,278.73
2018-08-07T01:00:17.775Z,245.25
2018-08-07T01:02:46.556Z,243.22
2018-08-07T01:05:16.574Z,245.37
2018-08-07T01:07:45.470Z,231.00
2018-08-07T01:10:18.233Z,261.15
2018-08-07T01:12:47.412Z,272.40
2018-08-07T01:15:18.477Z,259.32
2018-08-07T01:17:47.653Z,298.77
2018-08-07T01:20:17.853Z,248.60
2018-08-07T01:22:46.734Z,231.87
2018-08-07T01:25:19.575Z,227.97
2018-08-07T01:27:48.444Z,248.60
2018-08-07T01:30:24.114Z,231.57
2018-08-07T01:32:53.453Z,234.43
2018-08-07T01:35:22.143Z,209.03
2018-08-07T01:37:50.897Z,263.65
2018-08-07T01:40:19.599Z,231.70
2018-08-07T01:42:48.483Z,219.00
2018-08-07T01:45:17.276Z,214.38
2018-08-07T01:47:46.042Z,206.50
2018-08-07T01:50:15.621Z,262.23
2018-08-07T01:52:44.499Z,272.70
2018-08-07T01:55:23.493Z,237.93
2018-08-07T01:57:52.351Z,198.50
2018-08-07T02:00:21.128Z,213.43
2018-08-07T02:02:51.214Z,207.15
2018-08-07T02:05:20.526Z,262.23
2018-08-07T02:07:53.176Z,215.55
2018-08-07T02:10:21.882Z,233.78
2018-08-07T02:12:50.641Z,208.85
2018-08-07T02:15:19.323Z,220.82
2018-08-07T02:17:48.175Z,212.08
2018-08-07T02:20:17.668Z,213.80
2018-08-07T02:22:46.877Z,216.53
2018-08-07T02:25:17.799Z,188.80
2018-08-07T02:27:46.963Z,175.27
2018-08-07T02:30:16.649Z,209.92
2018-08-07T02:32:45.458Z,187.77
2018-08-07T02:35:15.247Z,195.87
2018-08-07T02:37:45.016Z,179.25
2018-08-07T02:40:14.532Z,165.82
2018-08-07T02:42:44.501Z,192.62
2018-08-07T02:45:16.451Z,184.65
2018-08-07T02:47:45.662Z,180.18
2018-08-07T02:50:18.339Z,182.27
2018-08-07T02:52:47.186Z,173.07
2018-08-07T02:55:16.905Z,158.65
2018-08-07T02:57:48.019Z,190.73
2018-08-07T03:00:20.119Z,183.03
2018-08-07T03:02:49.147Z,162.75
2018-08-07T03:05:18.800Z,165.37
2018-08-07T03:07:47.652Z,153.40
2018-08-07T03:10:16.503Z,168.60
2018-08-07T03:12:45.189Z,155.03
2018-08-07T03:15:17.473Z,143.40
2018-08-07T03:17:47.056Z,133.95
2018-08-07T03:20:16.186Z,126.82
2018-08-07T03:22:44.906Z,127.62
2018-08-07T03:25:14.274Z,144.13
2018-08-07T03:27:44.294Z,139.45
2018-08-07T03:30:15.126Z,114.63
2018-08-07T03:32:44.120Z,143.13
2018-08-07T03:35:12.867Z,119.55
2018-08-07T03:37:42.007Z,129.00
2018-08-07T03:40:13.280Z,152.25
2018-08-07T03:42:42.034Z,144.35
2018-08-07T03:45:12.768Z,145.40
2018-08-07T03:47:41.738Z,140.97
2018-08-07T03:50:10.903Z,125.27
2018-08-07T03:52:39.526Z,174.40
2018-08-07T03:55:10.202Z,157.93
2018-08-07T03:57:39.383Z,169.37
2018-08-07T04:00:12.092Z,178.38
2018-08-07T04:02:40.800Z,194.40
2018-08-07T04:05:09.590Z,172.47
2018-08-07T04:07:38.698Z,180.12
2018-08-07T04:10:12.106Z,220.85
2018-08-07T04:12:41.012Z,202.32
2018-08-07T04:15:11.810Z,215.05
2018-08-07T04:17:41.766Z,195.87
2018-08-07T04:20:15.219Z,199.05
2018-08-07T04:22:43.975Z,140.27
2018-08-07T04:25:12.715Z,192.40
2018-08-07T04:27:41.471Z,172.78
2018-08-07T04:30:13.696Z,163.32
2018-08-07T04:32:42.818Z,156.83
2018-08-07T04:35:12.994Z,172.90
2018-08-07T04:37:41.807Z,185.67
2018-08-07T04:40:11.235Z,167.95
2018-08-07T04:42:40.601Z,164.47
2018-08-07T04:45:15.833Z,222.40
2018-08-07T04:47:45.393Z,128.07
2018-08-07T04:50:16.140Z,177.30
2018-08-07T04:52:46.862Z,189.55
2018-08-07T04:55:15.490Z,166.92
2018-08-07T04:57:44.644Z,181.90
2018-08-07T05:00:15.822Z,199.00
2018-08-07T05:02:45.447Z,199.30
2018-08-07T05:05:14.285Z,232.20
2018-08-07T05:07:43.135Z,202.57
2018-08-07T05:10:14.921Z,209.83
2018-08-07T05:12:45.244Z,180.87
2018-08-07T05:15:15.155Z,169.45
2018-08-07T05:17:44.888Z,165.03
2018-08-07T05:20:13.646Z,169.05
2018-08-07T05:22:42.433Z,154.45
2018-08-07T05:25:11.935Z,142.45
2018-08-07T05:27:40.829Z,170.70
2018-08-07T05:30:12.004Z,143.67
2018-08-07T05:32:40.612Z,165.23
2018-08-07T05:35:10.390Z,157.93
2018-08-07T05:37:39.145Z,141.28
2018-08-07T05:40:09.219Z,143.72
2018-08-07T05:42:37.947Z,144.65
2018-08-07T05:45:08.433Z,125.35
2018-08-07T05:47:45.977Z,103.25
2018-08-07T05:50:17.244Z,77.83
2018-08-07T05:52:46.591Z,105.47
2018-08-07T05:55:15.433Z,105.80
2018-08-07T05:57:44.333Z,111.43
2018-08-07T06:00:31.590Z,104.17
2018-08-07T06:03:01.180Z,75.70
2018-08-07T06:05:41.167Z,104.95
2018-08-07T06:08:10.981Z,88.30
2018-08-07T06:10:39.837Z,83.10
2018-08-07T06:13:08.594Z,74.15
2018-08-07T06:15:37.414Z,93.27
2018-08-07T06:18:07.644Z,99.83
2018-08-07T06:20:36.423Z,94.83
2018-08-07T06:23:05.203Z,89.67
2018-08-07T06:25:33.973Z,35.00
2018-08-07T06:28:02.691Z,15.45
2018-08-07T06:30:31.427Z,37.55
2018-08-07T06:33:00.167Z,33.18
2018-08-07T06:35:28.936Z,38.90
2018-08-07T06:37:57.595Z,49.53
2018-08-07T06:40:26.786Z,38.23
2018-08-07T06:42:55.544Z,42.93
2018-08-07T06:45:24.226Z,73.53
2018-08-07T06:47:53.069Z,120.10
2018-08-07T06:50:21.797Z,87.47
2018-08-07T06:52:51.788Z,71.72
2018-08-07T06:55:20.496Z,81.22
2018-08-07T06:57:49.263Z,96.57
2018-08-07T07:00:22.626Z,80.28
2018-08-07T07:02:52.857Z,105.77
2018-08-07T07:05:21.842Z,75.37
2018-08-07T07:07:50.671Z,88.65
2018-08-07T07:10:19.342Z,73.80
2018-08-07T07:12:48.545Z,82.00
2018-08-07T07:15:18.040Z,55.53
2018-08-07T07:17:47.612Z,52.83
2018-08-07T07:20:17.659Z,49.38
2018-08-07T07:22:47.442Z,66.80
2018-08-07T07:25:16.436Z,49.00
2018-08-07T07:27:45.224Z,57.93
2018-08-07T07:30:16.053Z,62.85
2018-08-07T07:32:45.932Z,89.28
2018-08-07T07:35:15.236Z,53.45
2018-08-07T07:37:46.110Z,41.53
2018-08-07T07:40:15.903Z,63.42
2018-08-07T07:42:44.745Z,45.73
2018-08-07T07:45:15.862Z,41.15
2018-08-07T07:47:46.546Z,50.17
2018-08-07T07:50:17.451Z,50.10
2018-08-07T07:52:46.245Z,41.77
2018-08-07T07:55:15.970Z,37.55
2018-08-07T07:57:46.367Z,32.05
2018-08-07T08:00:19.423Z,177.07
2018-08-07T08:02:48.398Z,214.38
2018-08-07T08:05:23.032Z,203.50
2018-08-07T08:07:54.208Z,186.57
2018-08-07T08:10:23.127Z,77.65
2018-08-07T08:12:51.909Z,180.67
2018-08-07T08:15:21.681Z,123.57
2018-08-07T08:17:54.920Z,57.35
2018-08-07T08:20:25.838Z,36.45
2018-08-07T08:22:57.013Z,60.58
2018-08-07T08:25:25.865Z,32.10
2018-08-07T08:27:56.698Z,62.10
2018-08-07T08:30:25.426Z,54.33
2018-08-07T08:32:55.135Z,58.70
2018-08-07T08:35:26.119Z,38.53
2018-08-07T08:37:55.828Z,62.08
2018-08-07T08:40:25.430Z,101.60
2018-08-07T08:42:54.177Z,88.90
2018-08-07T08:45:25.500Z,149.65
2018-08-07T08:47:55.857Z,193.82
2018-08-07T08:50:24.715Z,185.00
2018-08-07T08:52:53.542Z,186.30
2018-08-07T08:55:22.358Z,200.13
2018-08-07T08:57:51.108Z,223.30
2018-08-07T09:00:23.536Z,135.85
2018-08-07T09:02:53.848Z,183.03
2018-08-07T09:05:22.640Z,239.60
2018-08-07T09:07:51.509Z,337.13
2018-08-07T09:10:25.052Z,373.45
2018-08-07T09:12:55.429Z,441.10
2018-08-07T09:15:24.290Z,480.93
2018-08-07T09:17:53.180Z,495.65
2018-08-07T09:20:26.750Z,440.92
2018-08-07T09:22:55.848Z,482.38
2018-08-07T09:25:27.206Z,474.98
2018-08-07T09:27:55.936Z,473.35
2018-08-07T09:30:28.794Z,476.13
2018-08-07T09:32:58.162Z,467.63
2018-08-07T09:35:27.051Z,488.68
2018-08-07T09:37:56.878Z,487.32
2018-08-07T09:40:25.766Z,511.35
2018-08-07T09:42:55.700Z,519.92
2018-08-07T09:45:27.678Z,479.68
2018-08-07T09:47:57.509Z,499.45
2018-08-07T09:50:26.343Z,537.15
2018-08-07T09:52:55.193Z,616.47
2018-08-07T09:55:23.945Z,748.80
2018-08-07T09:57:52.751Z,999.90
2018-08-07T10:00:28.910Z,216.63
2018-08-07T10:03:04.121Z,221.60
2018-08-07T10:05:34.180Z,200.47
2018-08-07T10:08:03.668Z,193.90
2018-08-07T10:10:32.596Z,184.30
2018-08-07T10:13:01.573Z,103.35
2018-08-07T10:15:30.421Z,86.53
2018-08-07T10:18:00.318Z,71.92
2018-08-07T10:20:29.035Z,81.13
2018-08-07T10:22:57.789Z,60.60
2018-08-07T10:25:26.700Z,44.43
2018-08-07T10:27:55.396Z,57.08
2018-08-07T10:30:25.934Z,34.57
2018-08-07T10:32:55.151Z,8.98
2018-08-07T10:35:28.717Z,9.63
2018-08-07T10:37:57.415Z,6.37
2018-08-07T10:40:27.441Z,6.17
2018-08-07T10:42:56.225Z,6.40
2018-08-07T10:45:26.016Z,6.45
2018-08-07T10:47:55.796Z,6.22
2018-08-07T10:50:28.742Z,6.17
2018-08-07T10:53:01.414Z,5.67
2018-08-07T10:55:30.342Z,5.55
2018-08-07T10:58:00.705Z,5.37
2018-08-07T11:00:32.077Z,5.17
2018-08-07T11:03:01.126Z,5.70
2018-08-07T11:05:30.270Z,5.53
2018-08-07T11:07:59.154Z,5.33
2018-08-07T11:10:28.324Z,5.22
2018-08-07T11:12:57.100Z,5.45
2018-08-07T11:15:29.720Z,5.55
2018-08-07T11:18:01.161Z,6.17
2018-08-07T11:20:30.141Z,6.80
2018-08-07T11:23:00.141Z,7.00
2018-08-07T11:25:29.786Z,7.28
2018-08-07T11:27:58.777Z,7.27
2018-08-07T11:30:29.358Z,6.05
2018-08-07T11:32:59.462Z,6.90
2018-08-07T11:35:29.665Z,6.72
2018-08-07T11:38:00.932Z,6.33
2018-08-07T11:40:30.836Z,6.33
2018-08-07T11:42:59.850Z,5.72
2018-08-07T11:45:30.391Z,6.20
2018-08-07T11:48:00.034Z,6.12
2018-08-07T11:50:31.017Z,6.17
2018-08-07T11:53:00.960Z,6.00
2018-08-07T11:55:29.894Z,5.57
2018-08-07T11:57:58.396Z,6.10
2018-08-07T12:00:30.129Z,6.17
2018-08-07T12:02:58.992Z,6.10
2018-08-07T12:05:27.860Z,5.87
2018-08-07T12:07:56.741Z,5.90
2018-08-07T12:10:26.582Z,5.80
2018-08-07T12:12:56.422Z,5.95
2018-08-07T12:15:26.002Z,5.57
2018-08-07T12:17:56.313Z,5.53
2018-08-07T12:20:26.151Z,5.65
2018-08-07T12:22:54.946Z,4.93
2018-08-07T12:25:23.855Z,5.28
2018-08-07T12:27:52.825Z,4.65
2018-08-07T12:30:27.238Z,4.62
2018-08-07T12:32:57.342Z,4.97
2018-08-07T12:35:26.448Z,4.55
2018-08-07T12:37:55.239Z,4.55
2018-08-07T12:40:27.974Z,4.83
2018-08-07T12:43:01.532Z,5.40
2018-08-07T12:45:30.712Z,4.72
2018-08-07T12:48:00.430Z,5.08
2018-08-07T12:50:30.364Z,4.97
2018-08-07T12:52:59.088Z,4.78
2018-08-07T12:55:27.889Z,4.87
2018-08-07T12:57:56.705Z,4.22
2018-08-07T13:00:26.903Z,4.27
2018-08-07T13:02:55.958Z,4.40
2018-08-07T13:05:24.809Z,4.20
2018-08-07T13:07:53.619Z,4.40
2018-08-07T13:10:24.206Z,4.25
2018-08-07T13:12:53.968Z,4.13
2018-08-07T13:15:25.178Z,4.20
2018-08-07T13:17:54.094Z,4.10
2018-08-07T13:20:22.920Z,4.10
2018-08-07T13:22:51.758Z,4.60
2018-08-07T13:25:22.805Z,4.20
2018-08-07T13:27:52.658Z,4.37
2018-08-07T13:30:25.270Z,4.40
2018-08-07T13:32:54.278Z,4.28
2018-08-07T13:35:23.150Z,4.33
2018-08-07T13:37:53.572Z,4.40
2018-08-07T13:40:24.140Z,3.87
2018-08-07T13:42:53.033Z,3.90
2018-08-07T13:45:23.511Z,4.37
2018-08-07T13:47:52.418Z,2.95
2018-08-07T13:50:25.300Z,2.87
2018-08-07T13:52:56.060Z,2.77
2018-08-07T13:55:25.642Z,3.30
2018-08-07T13:57:54.533Z,2.80
2018-08-07T14:00:25.705Z,3.00
2018-08-07T14:02:55.019Z,2.67
2018-08-07T14:05:24.575Z,2.80
2018-08-07T14:07:54.595Z,2.80
2018-08-07T14:10:25.548Z,2.75
2018-08-07T14:12:54.434Z,2.15
2018-08-07T14:15:25.813Z,2.60
2018-08-07T14:17:54.611Z,2.85
2018-08-07T14:20:23.438Z,2.80
2018-08-07T14:22:52.285Z,2.35
2018-08-07T14:25:22.687Z,2.40
2018-08-07T14:27:51.457Z,2.37
2018-08-07T14:30:22.971Z,2.70
2018-08-07T14:32:51.989Z,2.67
2018-08-07T14:35:21.046Z,2.60
2018-08-07T14:37:50.288Z,2.55
2018-08-07T14:40:20.424Z,2.35
2018-08-07T14:42:50.310Z,2.50
2018-08-07T14:45:22.131Z,2.42
2018-08-07T14:47:51.882Z,2.70
2018-08-07T14:50:22.997Z,2.72
2018-08-07T14:52:51.853Z,2.55
2018-08-07T14:55:20.763Z,2.20
2018-08-07T14:57:49.596Z,2.50
2018-08-07T15:00:25.760Z,2.52
2018-08-07T15:05:34.137Z,2.50
2018-08-07T15:08:03.384Z,2.50
2018-08-07T15:10:32.164Z,2.70
2018-08-07T15:13:00.948Z,2.65
2018-08-07T15:15:31.608Z,2.60
2018-08-07T15:18:02.372Z,2.70
2018-08-07T15:20:32.058Z,2.60
2018-08-07T15:23:00.735Z,2.50
2018-08-07T15:25:29.509Z,2.62
2018-08-07T15:27:58.291Z,2.70
2018-08-07T15:30:27.862Z,2.55
2018-08-07T15:32:57.108Z,2.65
2018-08-07T15:35:27.488Z,2.90
2018-08-07T15:37:58.791Z,2.60
2018-08-07T15:40:27.637Z,2.40
2018-08-07T15:42:56.415Z,2.50
2018-08-07T15:45:26.720Z,2.50
2018-08-07T15:47:55.580Z,2.80
2018-08-07T15:50:24.459Z,2.80
2018-08-07T15:52:56.017Z,2.62
2018-08-07T15:55:27.040Z,2.80
2018-08-07T15:57:56.761Z,2.70
2018-08-07T16:00:29.011Z,2.83
2018-08-07T16:03:00.619Z,3.00
2018-08-07T16:05:29.501Z,2.80
2018-08-07T16:07:58.415Z,2.42
2018-08-07T16:10:27.076Z,2.90
2018-08-07T16:12:56.920Z,3.22
2018-08-07T16:15:29.610Z,3.10
2018-08-07T16:17:58.475Z,2.70
2018-08-07T16:20:28.182Z,3.10
2018-08-07T16:22:59.977Z,3.08
2018-08-07T16:25:28.674Z,2.70
2018-08-07T16:27:57.394Z,3.00
2018-08-07T16:30:28.510Z,2.80
2018-08-07T16:32:57.362Z,2.87
2018-08-07T16:35:27.223Z,3.10
2018-08-07T16:37:56.934Z,2.83
2018-08-07T16:40:25.890Z,2.80
2018-08-07T16:42:54.388Z,3.17
2018-08-07T16:45:24.957Z,2.72
2018-08-07T16:47:53.727Z,3.03
2018-08-07T16:50:25.301Z,3.22
2018-08-07T16:52:54.938Z,4.00
2018-08-07T16:55:25.942Z,3.50
2018-08-07T16:57:54.714Z,3.52
2018-08-07T17:00:23.690Z,4.00
2018-08-07T17:02:52.391Z,4.10
2018-08-07T17:05:21.165Z,4.03
2018-08-07T17:07:50.237Z,3.98
2018-08-07T17:10:23.523Z,4.05
2018-08-07T17:12:52.353Z,3.95
2018-08-07T17:15:21.164Z,3.60
2018-08-07T17:17:50.016Z,3.98
2018-08-07T17:20:20.307Z,3.90
2018-08-07T17:22:49.387Z,3.80
2018-08-07T17:25:19.302Z,4.23
2018-08-07T17:27:48.810Z,3.65
2018-08-07T17:30:20.380Z,4.03
2018-08-07T17:32:49.160Z,3.97
2018-08-07T17:35:20.587Z,3.98
2018-08-07T17:37:50.554Z,4.03
2018-08-07T17:40:22.887Z,4.10
2018-08-07T17:42:51.623Z,3.95
2018-08-07T17:45:20.637Z,3.90
2018-08-07T17:47:50.393Z,4.03
2018-08-07T17:50:23.160Z,4.37
2018-08-07T17:52:54.385Z,4.50
2018-08-07T17:55:23.088Z,4.20
2018-08-07T17:57:52.952Z,4.10
2018-08-07T18:00:22.791Z,3.80
2018-08-07T18:02:52.525Z,4.10
2018-08-07T18:05:21.305Z,4.05
2018-08-07T18:07:51.629Z,4.37
2018-08-07T18:10:21.331Z,4.47
2018-08-07T18:12:51.112Z,4.40
2018-08-07T18:15:21.816Z,4.22
2018-08-07T18:17:50.889Z,4.30
2018-08-07T18:20:22.760Z,4.30
2018-08-07T18:22:52.470Z,4.35
2018-08-07T18:25:25.196Z,4.00
2018-08-07T18:27:53.939Z,4.08
2018-08-07T18:30:23.942Z,4.70
2018-08-07T18:32:52.776Z,5.15
2018-08-07T18:35:23.700Z,5.05
2018-08-07T18:37:52.456Z,5.15
2018-08-07T18:40:22.218Z,4.58
2018-08-07T18:42:50.905Z,4.58
2018-08-07T18:45:19.577Z,5.30
2018-08-07T18:47:48.313Z,5.35
2018-08-07T18:50:19.586Z,5.05
2018-08-07T18:52:48.406Z,5.30
2018-08-07T18:55:18.160Z,5.67
2018-08-07T18:57:52.196Z,5.35
2018-08-07T19:00:22.620Z,5.97
2018-08-07T19:02:52.366Z,6.03
2018-08-07T19:05:22.522Z,5.33
2018-08-07T19:07:51.277Z,4.53
2018-08-07T19:10:19.977Z,5.03
2018-08-07T19:12:50.079Z,5.08
2018-08-07T19:15:19.910Z,5.00
2018-08-07T19:17:49.569Z,4.62
2018-08-07T19:20:20.614Z,4.05
2018-08-07T19:22:49.454Z,3.60
2018-08-07T19:25:19.577Z,3.52
2018-08-07T19:27:48.266Z,3.60
2018-08-07T19:30:19.983Z,3.70
2018-08-07T19:32:48.722Z,3.42
2018-08-07T19:35:17.400Z,3.17
2018-08-07T19:37:46.138Z,3.08
2018-08-07T19:40:16.292Z,3.22
2018-08-07T19:42:45.714Z,3.10
2018-08-07T19:45:15.820Z,3.07
2018-08-07T19:47:45.074Z,3.33
2018-08-07T19:50:17.157Z,3.10
2018-08-07T19:52:45.937Z,3.08
2018-08-07T19:55:17.583Z,2.55
2018-08-07T19:57:46.285Z,2.97
2018-08-07T20:00:21.700Z,2.75
2018-08-07T20:02:50.844Z,3.00
2018-08-07T20:05:19.736Z,2.90
2018-08-07T20:07:48.400Z,3.25
2018-08-07T20:10:19.063Z,2.83
2018-08-07T20:12:52.553Z,2.52
2018-08-07T20:15:23.840Z,2.77
2018-08-07T20:17:53.242Z,2.80
2018-08-07T20:20:23.552Z,2.80
2018-08-07T20:22:52.456Z,2.37
2018-08-07T20:25:21.243Z,2.60
2018-08-07T20:27:49.902Z,2.62
2018-08-07T20:30:21.136Z,3.20
2018-08-07T20:32:53.369Z,2.47
2018-08-07T20:35:22.224Z,2.50
2018-08-07T20:37:51.016Z,2.55
2018-08-07T20:40:21.806Z,2.92
2018-08-07T20:42:51.801Z,2.47
2018-08-07T20:45:22.096Z,4.10
2018-08-07T20:47:50.865Z,3.65
2018-08-07T20:50:22.593Z,3.70
2018-08-07T20:52:51.979Z,3.37
2018-08-07T20:55:20.668Z,2.77
2018-08-07T20:57:49.430Z,2.58
2018-08-07T21:00:22.666Z,2.70
2018-08-07T21:02:51.570Z,2.60
2018-08-07T21:05:21.688Z,3.37
2018-08-07T21:07:50.419Z,2.75
2018-08-07T21:10:23.477Z,3.52
2018-08-07T21:12:52.293Z,2.20
2018-08-07T21:15:21.196Z,2.22
2018-08-07T21:17:50.179Z,2.62
2018-08-07T21:20:20.400Z,2.70
2018-08-07T21:22:49.340Z,2.47
2018-08-07T21:25:25.816Z,2.60
2018-08-07T21:27:56.940Z,2.70
2018-08-07T21:30:32.733Z,2.70
2018-08-07T21:33:01.373Z,2.37
2018-08-07T21:35:30.149Z,2.40
2018-08-07T21:37:58.901Z,2.52
2018-08-07T21:40:27.597Z,2.60
2018-08-07T21:42:56.944Z,2.33
2018-08-07T21:45:25.650Z,2.30
2018-08-07T21:47:54.456Z,2.60
2018-08-07T21:50:24.607Z,2.47
2018-08-07T21:52:53.313Z,2.60
2018-08-07T21:55:22.319Z,2.50
2018-08-07T21:57:51.031Z,2.40
2018-08-07T22:00:41.270Z,2.52
2018-08-07T22:03:10.511Z,2.60
2018-08-07T22:05:39.518Z,2.67
2018-08-07T22:08:09.153Z,3.02
2018-08-07T22:10:39.175Z,2.80
2018-08-07T22:13:08.960Z,2.80
2018-08-07T22:15:38.913Z,2.62
2018-08-07T22:18:09.270Z,2.77
2018-08-07T22:20:38.026Z,2.67
2018-08-07T22:23:06.983Z,2.60
2018-08-07T22:25:35.690Z,2.65
2018-08-07T22:28:04.467Z,2.67
2018-08-07T22:30:33.135Z,2.80
2018-08-07T22:33:01.843Z,2.62
2018-08-07T22:35:30.222Z,2.98
2018-08-07T22:37:58.970Z,2.80
2018-08-07T22:40:27.919Z,2.40
2018-08-07T22:42:56.209Z,2.70
2018-08-07T22:47:52.015Z,2.90
2018-08-07T22:50:20.762Z,3.10
2018-08-07T22:52:49.551Z,2.75
2018-08-07T22:55:19.523Z,2.90
2018-08-07T22:57:48.207Z,2.77
2018-08-07T23:00:18.725Z,2.92
2018-08-07T23:02:47.244Z,2.75
2018-08-07T23:05:17.082Z,2.73
2018-08-07T23:07:45.891Z,3.10
2018-08-07T23:10:18.921Z,3.27
2018-08-07T23:12:47.758Z,2.72
2018-08-07T23:15:18.668Z,3.00
2018-08-07T23:17:47.639Z,3.08
2018-08-07T23:20:17.721Z,3.20
2018-08-07T23:22:46.522Z,3.45
2018-08-07T23:25:19.152Z,3.08
2018-08-07T23:27:47.910Z,3.25
2018-08-07T23:30:18.255Z,3.10
2018-08-07T23:32:47.177Z,3.30
2018-08-07T23:35:17.358Z,3.42
2018-08-07T23:37:46.071Z,3.20
2018-08-07T23:40:15.393Z,3.17
2018-08-07T23:42:44.581Z,3.30
2018-08-07T23:45:16.093Z,3.12
2018-08-07T23:47:44.786Z,3.27
2018-08-07T23:50:14.165Z,3.40
2018-08-07T23:52:43.151Z,3.20
2018-08-07T23:55:11.928Z,3.45
2018-08-07T23:57:41.633Z,3.47
